Tiempo atmosférico en la estación meteorológica de Frontera, Sabinosa, Santa Cruz de Tenerife (20 m.)



Fecha
DESCASC
Temp. máxima en grados centígrados (hora)
DESCASC
Temp. mínima en grados centígrados (hora)
DESCASC
Temp. media en grados centígrados
DESCASC
Racha de viento máxima en m/sg (hora)
DESCASC
Velocidad máxima media en intervalos de 10 minutos(hora)
DESCASC
Precipitaciones diarias en mm
DESCASC
Precipitaciones de 00:00 a 06:00 en mm
DESCASC
Precipitaciones de 06:00 a 12:00 en mm
DESCASC
Precipitaciones de 12:00 a 18:00 en mm
DESCASC
Precipitaciones de 18:00 a 24:00 en mm
DESCASC
19-01-2020 24.3 (13:00) 16.5 (04:30) 20.4 9.44 (18:30) 6.11 (18:30) 0 0 0 0 0
18-01-2020 24.3 (15:00) 15.6 (03:30) 19.9 8.89 (21:40) 4.72 (22:50) 0 0 0 0 0
17-01-2020 23.7 (15:00) 13.7 (09:10) 18.7 7.22 (11:50) 4.44 (11:40) 0 0 0 0 0
16-01-2020 23 (15:20) 14.8 (00:00) 18.9 5.83 (23:59) 4.17 (23:59) 0 0 0 0 0
15-01-2020 22 (13:40) 14.8 (00:00) 18.4 4.17 (03:20) 3.33 (03:20) 0 0 0 0 0
14-01-2020 23.8 (15:10) 14.4 (00:00) 19.1 18.89 (09:00) 11.94 (09:00) 0 0 0 0 0
13-01-2020 20.7 (12:50) 15.5 (00:00) 18.1 6.67 (01:10) 3.61 (04:50) 0 0 0 0 0
12-01-2020 19.8 (15:00) 15.7 (02:10) 17.7 10.28 (04:00) 6.67 (00:40) 0 0 0 0 0
11-01-2020 21.1 (15:30) 17.3 (00:00) 19.2 9.44 (20:40) 6.39 (10:20) 0 0 0 0 0
10-01-2020 20.7 (15:50) 18 (00:00) 19.4 10.83 (07:30) 5.83 (12:00) 0 0 0 0 0
09-01-2020 21.1 (14:20) 17.3 (00:00) 19.2 9.72 (17:40) 5.83 (22:30) 0 0 0 0 0
08-01-2020 19.8 (13:40) 15.7 (00:00) 17.7 10.28 (13:50) 6.67 (14:00) 0 0 0 0 0
07-01-2020 21.1 (15:10) 16.1 (00:00) 18.6 10.83 (00:30) 6.94 (06:50) 0 0 0 0 0
06-01-2020 20.6 (15:20) 17.1 (00:00) 18.9 10.28 (11:50) 7.22 (11:50) 0 0 0 0 0
05-01-2020 21.8 (12:00) 16.4 (00:00) 19.1 9.44 (16:10) 6.11 (11:00) 0 0 0 0 0
04-01-2020 23.8 (14:30) 14.8 (00:00) 19.3 8.61 (19:30) 4.17 (19:30) 0 0 0 0 0
03-01-2020 23.4 (13:40) 15.1 (00:00) 19.3 6.67 (18:20) 4.44 (18:20) 0 0 0 0 0
02-01-2020 23 (13:00) 15.5 (00:00) 19.3 5.56 (01:30) 4.44 (07:50) 0 0 0 0 0
01-01-2020 23.9 (12:30) 14.7 (00:00) 19.3 5.28 (02:10) 3.06 (02:20) 0 0 0 0 0
31-12-2019 24.7 (13:30) 16.6 (00:00) 20.7 8.61 (23:20) 4.72 (23:10) 0 0 0 0 0
30-12-2019 -- (--) -- (--) -- -- (--) -- (--) -- 0 0 -- 0
29-12-2019 27.7 (15:00) 15.8 (00:00) 21.8 3.33 (13:30) 2.5 (23:00) 0 0 0 0 0
28-12-2019 28.4 (15:00) 16.7 (00:00) 22.6 4.17 (13:40) 3.06 (13:40) 0 0 0 0 0
27-12-2019 26.1 (14:20) 14.4 (00:00) 20.3 5.83 (15:00) 3.61 (15:00) 0 0 0 0 0
26-12-2019 24.2 (13:50) 17.3 (00:00) 20.8 6.11 (14:10) 3.06 (20:50) 0 0 0 0 0
25-12-2019 22.1 (13:50) 18.1 (00:00) 20.1 10.56 (08:10) 6.11 (08:50) 0 0 0 0 0
24-12-2019 26.8 (15:00) 15 (03:50) 20.9 7.22 (11:40) 4.72 (11:20) 0 0 0 0 0
23-12-2019 22.8 (14:30) 17.1 (00:00) 19.9 6.67 (02:00) 3.89 (06:00) 0 0 0 0 0
22-12-2019 21.9 (10:20) 17.7 (04:30) 19.8 9.17 (02:30) 6.39 (02:50) 0 0 0 0 0

Gráficas

Temp. máximas Temp. mínimas Temp. medias Precipitaciones Rachas de viento máximas Velocidades máximas media en intervalos de 10 minutos

Datos horarios

Fecha y hora oficial Temperatura (ºC) Velocidad del viento (km/h) Dirección del viento Racha (km/h) Dirección de racha Precipitación (mm) Presión (hPa) Tendencia (hPa) Humedad (%)
2020-01-20 23:00:00 17.2 9 Sudeste 27 Sudeste 0 -- -- 62
2020-01-20 22:00:00 17.9 17 Este 32 Este 0 -- -- 61
2020-01-20 21:00:00 18.2 18 Este 28 Este 0 -- -- 67
2020-01-20 20:00:00 18 13 Este 31 Este 0 -- -- 62
2020-01-20 19:00:00 18.5 19 Nordeste 30 Nordeste 0 -- -- 66
2020-01-20 18:00:00 18.7 17 Este 27 Nordeste 0 -- -- 66
2020-01-20 17:00:00 18.8 17 Nordeste 27 Este 0 -- -- 63
2020-01-20 16:00:00 18.9 19 Nordeste 35 Nordeste 0 -- -- 67
2020-01-20 15:00:00 18.9 15 Nordeste 28 Nordeste 0 -- -- 65
2020-01-20 14:00:00 18.7 18 Nordeste 33 Nordeste 0 -- -- 69
2020-01-20 13:00:00 18.5 18 Nordeste 34 Nordeste 0 -- -- 67
2020-01-20 12:00:00 18.6 19 Nordeste 37 Nordeste 0 -- -- 66
2020-01-20 11:00:00 18.7 18 Nordeste 33 Nordeste 0 -- -- 67
2020-01-20 10:00:00 18.7 13 Este 27 Este 0 -- -- 67
2020-01-20 09:00:00 18.4 16 Este 24 Nordeste 0 -- -- 70
2020-01-20 08:00:00 18.5 16 Nordeste 28 Nordeste 0 -- -- 71
2020-01-20 07:00:00 18.1 9 Sudeste 26 Nordeste 0 -- -- 73
2020-01-20 06:00:00 18.4 14 Sudeste 35 Nordeste 0 -- -- 73
2020-01-20 05:00:00 18.1 12 Sudeste 22 Sudeste 0 -- -- 72
2020-01-20 04:00:00 17.8 11 Sudeste 26 Sudeste 0 -- -- 73
2020-01-20 03:00:00 17.8 9 Sudeste 21 Sudeste 0 -- -- 72
2020-01-20 02:00:00 18 12 Sur 21 Sudeste 0 -- -- 71
2020-01-20 01:00:00 17.8 12 Sudeste 23 Sudeste 0 -- -- 70
2020-01-20 00:00:00 17.8 15 Sudeste 25 Sudeste 0 -- -- 71
2020-01-19 23:00:00 17.7 4 Sudeste 31 Este 0 -- -- 72
2020-01-19 22:00:00 18.7 19 Nordeste 31 Nordeste 0 -- -- 76
2020-01-19 21:00:00 18.7 16 Este 26 Nordeste 0 -- -- 77
2020-01-19 20:00:00 19 13 Este 32 Nordeste 0 -- -- 76
2020-01-19 19:00:00 19.4 14 Nordeste 34 Nordeste 0 -- -- 76
2020-01-19 18:00:00 19.9 17 Nordeste 32 Nordeste 0 -- -- 74
2020-01-19 17:00:00 20.4 13 Nordeste 23 Nordeste 0 -- -- 70
2020-01-19 16:00:00 21.4 9 Norte 18 Norte 0 -- -- 65
2020-01-19 15:00:00 22.2 8 Norte 28 Norte 0 -- -- 55
2020-01-19 14:00:00 23.6 9 Norte 15 Norte 0 -- -- 53
2020-01-19 13:00:00 24.3 6 Noroeste 13 Noroeste 0 -- -- 45
2020-01-19 12:00:00 23.9 4 Noroeste 15 Norte 0 -- -- 48
2020-01-19 11:00:00 22.7 3 Noroeste 20 Norte 0 -- -- 50
2020-01-19 10:00:00 21.8 4 Noroeste 13 Oeste 0 -- -- 53
2020-01-19 09:00:00 18.4 6 Noroeste 15 Sudoeste 0 -- -- 68
2020-01-19 08:00:00 18 4 Sudoeste 24 Nordeste 0 -- -- 66
2020-01-19 07:00:00 18 6 Oeste 20 Norte 0 -- -- 66
2020-01-19 06:00:00 18.3 10 Oeste 20 Oeste 0 -- -- 65
2020-01-19 05:00:00 17.6 11 Oeste 16 Oeste 0 -- -- 63
2020-01-19 04:00:00 17.7 7 Oeste 20 Oeste 0 -- -- 57
2020-01-19 03:00:00 18 12 Oeste 25 Oeste 0 -- -- 65
2020-01-19 02:00:00 18.2 8 Oeste 18 Oeste 0 -- -- 63
2020-01-19 01:00:00 18.1 11 Sudoeste 23 Sudoeste 0 -- -- 63
2020-01-19 00:00:00 18.3 14 Sur 21 Sur 0 -- -- 62
2020-01-18 23:00:00 18.9 10 Nordeste 31 Nordeste 0 -- -- 58
2020-01-18 22:00:00 18.6 6 Nordeste 32 Nordeste 0 -- -- 56
2020-01-18 21:00:00 17.9 5 Oeste 13 Sudoeste 0 -- -- 55
2020-01-18 20:00:00 18.7 7 Sudoeste 15 Sudoeste 0 -- -- 53
2020-01-18 19:00:00 19.7 13 Nordeste 22 Nordeste 0 -- -- 53
2020-01-18 18:00:00 19.8 9 Sur 14 Sudeste 0 -- -- 41
2020-01-18 17:00:00 20.7 4 Sudoeste 20 Oeste 0 -- -- 40
2020-01-18 16:00:00 22.1 4 Sudoeste 12 Oeste 0 -- -- 41
2020-01-18 15:00:00 24.3 8 Oeste 17 Norte 0 -- -- 42
2020-01-18 14:00:00 23.8 4 Norte 16 Noroeste 0 -- -- 41
2020-01-18 13:00:00 23.6 7 Norte 21 Norte 0 -- -- 45
2020-01-18 12:00:00 24.1 11 Noroeste 20 Noroeste 0 -- -- 34
2020-01-18 11:00:00 22.7 11 Noroeste 16 Oeste 0 -- -- 43
2020-01-18 10:00:00 20.8 3 Oeste 17 Oeste 0 -- -- 52
2020-01-18 09:00:00 17.5 10 Oeste 18 Oeste 0 -- -- 66
2020-01-18 08:00:00 16.5 5 Sudoeste 15 Oeste 0 -- -- 68
2020-01-18 07:00:00 16.4 8 Sudoeste 17 Sur 0 -- -- 69
2020-01-18 06:00:00 16.5 6 Oeste 15 Noroeste 0 -- -- 70
2020-01-18 05:00:00 16.1 6 Sudoeste 12 Sudoeste 0 -- -- 64
2020-01-18 04:00:00 16.3 5 Sudoeste 14 Sur 0 -- -- 61
2020-01-18 03:00:00 16.4 3 Noroeste 18 Sur 0 -- -- 55
2020-01-18 02:00:00 16.5 9 Sudoeste 17 Sur 0 -- -- 59
2020-01-18 01:00:00 16.4 10 Sur 15 Sudeste 0 -- -- 65
2020-01-18 00:00:00 16.2 12 Sur 15 Sur 0 -- -- 59
2020-01-17 23:00:00 16 9 Sur 11 Sur 0 -- -- 51
2020-01-17 22:00:00 15.8 5 Sur 11 Sudoeste 0 -- -- 48
2020-01-17 21:00:00 16 6 Sur 9 Sudoeste 0 -- -- 45
2020-01-17 20:00:00 16.4 5 Sudoeste 10 Sudoeste 0 -- -- 44
2020-01-17 19:00:00 17.1 6 Sudoeste 9 Sudoeste 0 -- -- 42
2020-01-17 18:00:00 18.3 3 Sudoeste 10 Sudeste 0 -- -- 44
2020-01-17 17:00:00 19.2 3 Sur 7 Sudoeste 0 -- -- 42
2020-01-17 16:00:00 20.8 5 Sudoeste 14 Noroeste 0 -- -- 39
2020-01-17 15:00:00 -- -- -- -- -- -- -- -- --
2020-01-17 14:00:00 -- -- -- -- -- -- -- -- --
2020-01-17 13:00:00 -- -- -- -- -- -- -- -- --
2020-01-17 12:00:00 -- -- -- -- -- -- -- -- --
2020-01-17 11:00:00 -- -- -- -- -- -- -- -- --
2020-01-17 10:00:00 -- -- -- -- -- -- -- -- --
2020-01-17 09:00:00 -- -- -- -- -- -- -- -- --
2020-01-17 08:00:00 -- -- -- -- -- -- -- -- --
2020-01-17 07:00:00 -- -- -- -- -- -- -- -- --
2020-01-17 06:00:00 -- -- -- -- -- -- -- -- --
2020-01-17 05:00:00 -- -- -- -- -- -- -- -- --
2020-01-17 04:00:00 -- -- -- -- -- -- -- -- --
2020-01-17 03:00:00 -- -- -- -- -- -- -- -- --
2020-01-17 02:00:00 -- -- -- -- -- -- -- -- --
2020-01-17 01:00:00 -- -- -- -- -- -- -- -- --
2020-01-17 00:00:00 -- -- -- -- -- -- -- -- --
2020-01-16 23:00:00 -- -- -- -- -- -- -- -- --
2020-01-16 22:00:00 -- -- -- -- -- -- -- -- --
2020-01-16 21:00:00 -- -- -- -- -- -- -- -- --
2020-01-16 20:00:00 -- -- -- -- -- -- -- -- --
2020-01-16 19:00:00 -- -- -- -- -- -- -- -- --
2020-01-16 18:00:00 -- -- -- -- -- -- -- -- --
2020-01-16 17:00:00 -- -- -- -- -- -- -- -- --
2020-01-16 16:00:00 -- -- -- -- -- -- -- -- --
2020-01-16 15:00:00 -- -- -- -- -- -- -- -- --
2020-01-16 14:00:00 -- -- -- -- -- -- -- -- --
2020-01-16 13:00:00 -- -- -- -- -- -- -- -- --
2020-01-16 12:00:00 -- -- -- -- -- -- -- -- --
2020-01-16 11:00:00 -- -- -- -- -- -- -- -- --
2020-01-16 10:00:00 19.5 6 Sur 11 Sur 0 -- -- 32
2020-01-16 09:00:00 15.7 9 Sudoeste 13 Sudoeste 0 -- -- 38
2020-01-16 08:00:00 15.2 8 Sudoeste 14 Sur 0 -- -- 39
2020-01-16 07:00:00 14.8 8 Sudoeste 14 Sudoeste 0 -- -- 44
2020-01-16 06:00:00 15.1 9 Sudoeste 13 Sudoeste 0 -- -- 47
2020-01-16 05:00:00 15.3 8 Sur 14 Sudoeste 0 -- -- 52
2020-01-16 04:00:00 15.7 8 Sudoeste 14 Sudoeste 0 -- -- 56
2020-01-16 03:00:00 16.2 11 Sudoeste 14 Sudoeste 0 -- -- 56
2020-01-16 02:00:00 16 9 Sudoeste 14 Sudoeste 0 -- -- 40
2020-01-16 01:00:00 16.2 7 Sudoeste 14 Sudoeste 0 -- -- 56
2020-01-16 00:00:00 16.4 10 Sudoeste 13 Sur 0 -- -- 55
2020-01-15 23:00:00 16.5 9 Sudoeste 12 Sudoeste 0 -- -- 48
2020-01-15 22:00:00 16.5 11 Sudoeste 13 Sudoeste 0 -- -- 44
2020-01-15 21:00:00 16.8 9 Sur 12 Sur 0 -- -- 45
2020-01-15 20:00:00 16.7 9 Sur 11 Sudoeste 0 -- -- 46
2020-01-15 19:00:00 17 7 Sudoeste 10 Sudoeste 0 -- -- 47
2020-01-15 18:00:00 18.1 5 Sudoeste 8 Sudoeste 0 -- -- 48
2020-01-15 17:00:00 19.4 5 Sur 8 Sur 0 -- -- 45
2020-01-15 16:00:00 20.6 2 Nordeste 6 Norte 0 -- -- 46
2020-01-15 15:00:00 21.6 5 Nordeste 8 Nordeste 0 -- -- 44
2020-01-15 14:00:00 21.7 4 Norte 9 Oeste 0 -- -- 50
2020-01-15 13:00:00 21.3 4 Norte 8 Norte 0 -- -- 49
2020-01-15 12:00:00 21.3 4 Norte 7 Noroeste 0 -- -- 50
2020-01-15 11:00:00 20.6 4 Nordeste 6 Norte 0 -- -- 49
2020-01-15 10:00:00 18.6 2 Sudeste 9 Sudoeste 0 -- -- 42
2020-01-15 09:00:00 15.1 6 Sudoeste 10 Sur 0 -- -- 46
2020-01-15 08:00:00 15 7 Sur 12 Sur 0 -- -- 50
2020-01-15 07:00:00 15.2 8 Sur 13 Sur 0 -- -- 53
2020-01-15 06:00:00 15.2 6 Sudoeste 10 Sudoeste 0 -- -- 65
2020-01-15 05:00:00 15.7 9 Sudoeste 13 Sudoeste 0 -- -- 65
2020-01-15 04:00:00 16.2 7 Sudoeste 15 Sudoeste 0 -- -- 61
2020-01-15 03:00:00 16.2 9 Sudoeste 13 Sur 0 -- -- 62
2020-01-15 02:00:00 16.5 9 Sur 13 Sur 0 -- -- 58
2020-01-15 01:00:00 16.7 10 Sur 13 Sur 0 -- -- 61
2020-01-15 00:00:00 16.8 8 Sur 14 Sur 0 -- -- 61
2020-01-14 23:00:00 17.2 11 Sur 14 Sur 0 -- -- 59
2020-01-14 22:00:00 17.3 10 Sur 14 Sur 0 -- -- 57
2020-01-14 21:00:00 17.3 9 Sur 13 Sur 0 -- -- 52
2020-01-14 20:00:00 17.7 6 Oeste 15 Sur 0 -- -- 48
2020-01-14 19:00:00 18.7 10 Sur 17 Sur 0 -- -- 43
2020-01-14 18:00:00 19.8 3 Sudoeste 35 Sudeste 0 -- -- 40
2020-01-14 17:00:00 20.6 22 Sur 37 Sudeste 0 -- -- 41
2020-01-14 16:00:00 21.5 29 Sur 42 Sudeste 0 -- -- 32
2020-01-14 15:00:00 23.7 23 Sur 47 Sur 0 -- -- 33
2020-01-14 14:00:00 23.3 22 Sudeste 58 Sur 0 -- -- 38
2020-01-14 13:00:00 22.9 33 Sur 57 Sur 0 -- -- 38
2020-01-14 12:00:00 22.8 27 Sudeste 57 Sur 0 -- -- 37
2020-01-14 11:00:00 21.9 36 Sur 58 Sur 0 -- -- 39
2020-01-14 10:00:00 21 41 Sur 61 Sur 0 -- -- 35
2020-01-14 09:00:00 19.6 43 Sur 68 Sur 0 -- -- 42
2020-01-14 08:00:00 19.6 39 Sur 62 Sur 0 -- -- 33
2020-01-14 07:00:00 17.5 13 Norte 32 Nordeste 0 -- -- 39
2020-01-14 06:00:00 14.6 5 Sudoeste 10 Sur 0 -- -- 54
2020-01-14 05:00:00 15.5 5 Oeste 17 Oeste 0 -- -- 60
2020-01-14 04:00:00 14.5 8 Sudoeste 10 Sur 0 -- -- 60
2020-01-14 03:00:00 14.7 6 Sur 14 Sur 0 -- -- 66
2020-01-14 02:00:00 15.1 6 Sur 14 Sudeste 0 -- -- 61
2020-01-14 01:00:00 15.8 7 Sudoeste 12 Sudoeste 0 -- -- 59
2020-01-14 00:00:00 15.5 6 Sudoeste 12 Sudoeste 0 -- -- 62
2020-01-13 23:00:00 15.6 6 Sur 13 Sudeste 0 -- -- 64
2020-01-13 22:00:00 16.2 6 Sur 13 Sur 0 -- -- 63
2020-01-13 21:00:00 16.3 9 Sur 13 Sur 0 -- -- 64
2020-01-13 20:00:00 16.5 6 Sudoeste 14 Sur 0 -- -- 59
2020-01-13 19:00:00 17.7 5 Sudeste 13 Sudoeste 0 -- -- 62
2020-01-13 18:00:00 18.1 5 Sudoeste 11 Sudoeste 0 -- -- 63
2020-01-13 17:00:00 18.9 9 Sudoeste 12 Sudoeste 0 -- -- 61
2020-01-13 16:00:00 19.8 2 Noroeste 18 Norte 0 -- -- 61
2020-01-13 15:00:00 20.1 3 Norte 15 Nordeste 0 -- -- 64
2020-01-13 14:00:00 19.7 10 Nordeste 17 Nordeste 0 -- -- 66
2020-01-13 13:00:00 20.5 4 Nordeste 12 Nordeste 0 -- -- 63
2020-01-13 12:00:00 19.5 6 Este 13 Este 0 -- -- 64
2020-01-13 11:00:00 18.5 7 Sudeste 14 Sudeste 0 -- -- 66
2020-01-13 10:00:00 17.8 9 Sudeste 15 Sur 0 -- -- 66
2020-01-13 09:00:00 16.6 10 Sur 16 Sudeste 0 -- -- 70
2020-01-13 08:00:00 16 10 Sur 15 Sur 0 -- -- 71
2020-01-13 07:00:00 16.1 11 Sur 15 Sudeste 0 -- -- 71
2020-01-13 06:00:00 16.2 11 Sur 17 Sur 0 -- -- 70
2020-01-13 05:00:00 16.3 10 Sur 17 Sur 0 -- -- 70
2020-01-13 04:00:00 16.4 9 Sur 17 Sur 0 -- -- 69
2020-01-13 03:00:00 16.6 6 Sur 10 Sudoeste 0 -- -- 70
2020-01-13 02:00:00 16.8 5 Sur 24 Sudeste 0 -- -- 73
2020-01-13 01:00:00 17.3 5 Sur 12 Sudeste 0 -- -- 72
2020-01-13 00:00:00 17.9 8 Sur 16 Oeste 0 -- -- 70
2020-01-12 23:00:00 17.8 6 Sudoeste 15 Sudeste 0 -- -- 70
2020-01-12 22:00:00 17.8 10 Sudeste 24 Sudeste 0 -- -- 69
2020-01-12 21:00:00 17.7 14 Sudeste 23 Sudeste 0 -- -- 65
2020-01-12 20:00:00 18.6 9 Este 22 Nordeste 0 -- -- 68
2020-01-12 19:00:00 18.9 14 Nordeste 26 Este 0 -- -- 69
2020-01-12 18:00:00 19.2 15 Nordeste 24 Nordeste 0 -- -- 69
2020-01-12 17:00:00 19.6 14 Nordeste 27 Nordeste 0 -- -- 67
2020-01-12 16:00:00 19.3 17 Nordeste 34 Nordeste 0 -- -- 67
2020-01-12 15:00:00 19.8 12 Nordeste 19 Nordeste 0 -- -- 64
2020-01-12 14:00:00 19.3 13 Nordeste 22 Nordeste 0 -- -- 67
2020-01-12 13:00:00 19.2 9 Nordeste 22 Nordeste 0 -- -- 67
2020-01-12 12:00:00 19.2 16 Nordeste 27 Nordeste 0 -- -- 69
2020-01-12 11:00:00 19.5 6 Este 18 Nordeste 0 -- -- 63
2020-01-12 10:00:00 18.1 3 Sudoeste 21 Nordeste 0 -- -- 67
2020-01-12 09:00:00 18.1 13 Nordeste 26 Nordeste 0 -- -- 72
2020-01-12 08:00:00 17.1 7 Sudeste 26 Este 0 -- -- 77
2020-01-12 07:00:00 17 11 Sudeste 29 Nordeste 0 -- -- 78
2020-01-12 06:00:00 17.9 14 Nordeste 26 Este 0 -- -- 79
2020-01-12 05:00:00 16.4 12 Sur 28 Sudeste 0 -- -- 75
2020-01-12 04:00:00 16.7 19 Este 37 Nordeste 0 -- -- 83
2020-01-12 03:00:00 15.8 13 Sur 23 Nordeste 0 -- -- 83
2020-01-12 02:00:00 15.9 13 Sudeste 24 Sur 0 -- -- 80
2020-01-12 01:00:00 17 15 Nordeste 36 Nordeste 0 -- -- 80
2020-01-12 00:00:00 17.3 12 Sudeste 33 Nordeste 0 -- -- 69
2020-01-11 23:00:00 18.3 16 Nordeste 34 Nordeste 0 -- -- 73
2020-01-11 22:00:00 18.2 11 Este 28 Nordeste 0 -- -- 72
2020-01-11 21:00:00 18.4 15 Nordeste 34 Nordeste 0 -- -- 71
2020-01-11 20:00:00 19 17 Nordeste 27 Nordeste 0 -- -- 65
2020-01-11 19:00:00 18.9 13 Este 31 Nordeste 0 -- -- 58
2020-01-11 18:00:00 19.4 17 Este 27 Este 0 -- -- 67
2020-01-11 17:00:00 19.7 19 Este 28 Este 0 -- -- 65
2020-01-11 16:00:00 20.4 18 Este 30 Este 0 -- -- 60
2020-01-11 15:00:00 19.9 18 Nordeste 31 Nordeste 0 -- -- 62
2020-01-11 14:00:00 20.1 14 Nordeste 26 Nordeste 0 -- -- 65
2020-01-11 13:00:00 20.2 14 Este 24 Nordeste 0 -- -- 59
2020-01-11 12:00:00 20.4 12 Este 27 Este 0 -- -- 59
2020-01-11 11:00:00 19.3 17 Este 32 Este 0 -- -- 63
2020-01-11 10:00:00 18.9 17 Este 30 Nordeste 0 -- -- 66
2020-01-11 09:00:00 18.3 10 Sudeste 28 Este 0 -- -- 63
2020-01-11 08:00:00 18.7 12 Este 28 Nordeste 0 -- -- 69
2020-01-11 07:00:00 18.8 16 Nordeste 31 Este 0 -- -- 69
2020-01-11 06:00:00 19 14 Nordeste 30 Nordeste 0 -- -- 74
2020-01-11 05:00:00 18.6 11 Este 33 Nordeste 0 -- -- 76
2020-01-11 04:00:00 18.6 14 Este 33 Nordeste 0 -- -- 74
2020-01-11 03:00:00 18.2 10 Sudeste 21 Este 0 -- -- 70
2020-01-11 02:00:00 18.8 13 Este 24 Este 0 -- -- 73
2020-01-11 01:00:00 18.5 6 Sudeste 27 Sudeste 0 -- -- 70
2020-01-11 00:00:00 18.7 8 Este 24 Este 0 -- -- 71
2020-01-10 23:00:00 19 12 Este 32 Nordeste 0 -- -- 72
2020-01-10 22:00:00 19.1 17 Nordeste 34 Nordeste 0 -- -- 72
2020-01-10 21:00:00 19.4 15 Este 26 Este 0 -- -- 75
2020-01-10 20:00:00 19.3 13 Nordeste 29 Nordeste 0 -- -- 73
2020-01-10 19:00:00 19.4 14 Nordeste 28 Nordeste 0 -- -- 74
2020-01-10 18:00:00 19.7 15 Este 31 Nordeste 0 -- -- 74
2020-01-10 17:00:00 19.7 19 Nordeste 32 Nordeste 0 -- -- 73
2020-01-10 16:00:00 20.7 12 Este 26 Este 0 -- -- 64
2020-01-10 15:00:00 20.2 17 Nordeste 28 Nordeste 0 -- -- 74
2020-01-10 14:00:00 20.3 12 Este 27 Este 0 -- -- 73
2020-01-10 13:00:00 19.5 8 Sudeste 35 Nordeste 0 -- -- 76
2020-01-10 12:00:00 20.1 21 Este 33 Nordeste 0 -- -- 73
2020-01-10 11:00:00 20 12 Este 31 Este 0 -- -- 73
2020-01-10 10:00:00 19.7 10 Este 25 Nordeste 0 -- -- 72
2020-01-10 09:00:00 18.7 13 Sudeste 30 Nordeste 0 -- -- 63
2020-01-10 08:00:00 18.9 12 Este 39 Nordeste 0 -- -- 69
2020-01-10 07:00:00 18.1 8 Sudeste 28 Sudeste 0 -- -- 67
2020-01-10 06:00:00 18.5 12 Este 31 Nordeste 0 -- -- 68
2020-01-10 05:00:00 19 18 Este 30 Este 0 -- -- 73
2020-01-10 04:00:00 18.4 16 Este 35 Sudeste 0 -- -- 67
2020-01-10 03:00:00 18.1 15 Sudeste 31 Sudeste 0 -- -- 60
2020-01-10 02:00:00 18.8 15 Este 28 Nordeste 0 -- -- 68
2020-01-10 01:00:00 18.9 14 Este 33 Este 0 -- -- 65
2020-01-10 00:00:00 18.9 15 Este 29 Este 0 -- -- 65
2020-01-09 23:00:00 18.7 19 Este 35 Nordeste 0 -- -- 63
2020-01-09 22:00:00 18.8 20 Este 34 Este 0 -- -- 64
2020-01-09 21:00:00 18.9 19 Este 35 Nordeste 0 -- -- 69
2020-01-09 20:00:00 19 17 Este 31 Este 0 -- -- 66
2020-01-09 19:00:00 18.9 17 Nordeste 28 Nordeste 0 -- -- 67
2020-01-09 18:00:00 18.9 20 Este 35 Este 0 -- -- 67
2020-01-09 17:00:00 19.3 21 Este 31 Este 0 -- -- 67
2020-01-09 16:00:00 19.7 15 Este 27 Este 0 -- -- 65
2020-01-09 15:00:00 20.6 18 Este 29 Este 0 -- -- 58
2020-01-09 14:00:00 20.6 19 Este 28 Nordeste 0 -- -- 58
2020-01-09 13:00:00 20.3 19 Este 30 Este 0 -- -- 62
2020-01-09 12:00:00 20.7 16 Este 30 Este 0 -- -- 58
2020-01-09 11:00:00 19.3 18 Nordeste 34 Nordeste 0 -- -- 66
2020-01-09 10:00:00 19 21 Nordeste 31 Nordeste 0 -- -- 69
2020-01-09 09:00:00 18.8 18 Nordeste 32 Nordeste 0 -- -- 69
2020-01-09 08:00:00 17.8 8 Este 23 Nordeste 0 -- -- 71
2020-01-09 07:00:00 17.9 9 Este 27 Nordeste 0 -- -- 67
2020-01-09 06:00:00 18 8 Sudeste 29 Este 0 -- -- 63
2020-01-09 05:00:00 17.4 8 Sudeste 20 Este 0 -- -- 69
2020-01-09 04:00:00 18 12 Este 28 Este 0 -- -- 68
2020-01-09 03:00:00 18.1 11 Este 28 Nordeste 0 -- -- 67
2020-01-09 02:00:00 18.2 11 Este 27 Nordeste 0 -- -- 69
2020-01-09 01:00:00 17.6 12 Sudeste 25 Sudeste 0 -- -- 64
2020-01-09 00:00:00 17.5 11 Sudeste 24 Sudeste 0 -- -- 62
2020-01-08 23:00:00 17.3 15 Sudeste 26 Sudeste 0 -- -- 63
2020-01-08 22:00:00 17.6 8 Sudeste 20 Este 0 -- -- 64
2020-01-08 21:00:00 17.8 6 Sudeste 31 Nordeste 0 -- -- 66
2020-01-08 20:00:00 18.5 10 Este 26 Nordeste 0 -- -- 65
2020-01-08 19:00:00 18.7 18 Este 28 Nordeste 0 -- -- 65
2020-01-08 18:00:00 19 18 Este 30 Nordeste 0 -- -- 66
2020-01-08 17:00:00 19.2 15 Nordeste 24 Nordeste 0 -- -- 67
2020-01-08 16:00:00 19.4 14 Nordeste 27 Nordeste 0 -- -- 67
2020-01-08 15:00:00 19.5 19 Nordeste 32 Nordeste 0 -- -- 67
2020-01-08 14:00:00 19.5 24 Nordeste 37 Nordeste 0 -- -- 68
2020-01-08 13:00:00 19.6 22 Nordeste 35 Nordeste 0 -- -- 69
2020-01-08 12:00:00 19.4 17 Nordeste 30 Nordeste 0 -- -- 71
2020-01-08 11:00:00 19.3 16 Nordeste 33 Este 0 -- -- 71
2020-01-08 10:00:00 19.4 15 Nordeste 33 Nordeste 0 -- -- 66
2020-01-08 09:00:00 18.2 17 Nordeste 30 Nordeste 0 -- -- 68
2020-01-08 08:00:00 17.3 14 Este 27 Nordeste 0 -- -- 70
2020-01-08 07:00:00 16.9 11 Sur 22 Sur 0 -- -- 64
2020-01-08 06:00:00 16.8 13 Sudeste 21 Sur 0 -- -- 64
2020-01-08 05:00:00 16.7 11 Sudeste 20 Sudeste 0 -- -- 67
2020-01-08 04:00:00 16.4 6 Sudoeste 19 Sudeste 0 -- -- 64
2020-01-08 03:00:00 16.2 10 Sur 15 Sur 0 -- -- 62
2020-01-08 02:00:00 16.4 9 Sur 18 Sur 0 -- -- 64
2020-01-08 01:00:00 16.5 10 Sudeste 19 Sudeste 0 -- -- 66
2020-01-08 00:00:00 16.1 7 Sur 16 Sur 0 -- -- 64
2020-01-07 23:00:00 16.8 7 Sudeste 20 Sudeste 0 -- -- 64
2020-01-07 22:00:00 17.1 6 Sur 24 Norte 0 -- -- 62
2020-01-07 21:00:00 17.8 10 Nordeste 18 Nordeste 0 -- -- 67
2020-01-07 20:00:00 17.1 3 Sur 15 Este 0 -- -- 59
2020-01-07 19:00:00 19.1 12 Nordeste 24 Nordeste 0 -- -- 65
2020-01-07 18:00:00 19.3 12 Nordeste 22 Nordeste 0 -- -- 62
2020-01-07 17:00:00 19.6 17 Nordeste 27 Nordeste 0 -- -- 63
2020-01-07 16:00:00 20.1 7 Este 23 Sudeste 0 -- -- 48
2020-01-07 15:00:00 21 13 Nordeste 24 Este 0 -- -- 51
2020-01-07 14:00:00 20.5 16 Nordeste 25 Nordeste 0 -- -- 58
2020-01-07 13:00:00 19.9 17 Nordeste 30 Nordeste 0 -- -- 64
2020-01-07 12:00:00 19.8 20 Nordeste 34 Nordeste 0 -- -- 64
2020-01-07 11:00:00 20.5 14 Nordeste 32 Nordeste 0 -- -- 53
2020-01-07 10:00:00 19.2 19 Nordeste 29 Nordeste 0 -- -- 65
2020-01-07 09:00:00 18.8 18 Nordeste 28 Nordeste 0 -- -- 65
2020-01-07 08:00:00 18.5 15 Nordeste 29 Nordeste 0 -- -- 61
2020-01-07 07:00:00 18 15 Nordeste 37 Nordeste 0 -- -- 71
2020-01-07 06:00:00 18.7 19 Nordeste 33 Nordeste 0 -- -- 69
2020-01-07 05:00:00 18.6 12 Este 30 Nordeste 0 -- -- 68
2020-01-07 04:00:00 18.5 16 Este 39 Este 0 -- -- 67
2020-01-07 03:00:00 17.3 11 Sudeste 28 Sudeste 0 -- -- 61
2020-01-07 02:00:00 18.4 15 Sudeste 37 Este 0 -- -- 62
2020-01-07 01:00:00 18.6 20 Este 39 Este 0 -- -- 71
2020-01-07 00:00:00 18.4 17 Este 30 Nordeste 0 -- -- 66
2020-01-06 23:00:00 18.4 17 Este 35 Nordeste 0 -- -- 69
2020-01-06 22:00:00 18.5 15 Este 31 Este 0 -- -- 67
2020-01-06 21:00:00 18.9 18 Este 30 Nordeste 0 -- -- 71
2020-01-06 20:00:00 18.7 10 Este 25 Este 0 -- -- 74
2020-01-06 19:00:00 18.9 14 Nordeste 32 Nordeste 0 -- -- 72
2020-01-06 18:00:00 19.5 17 Este 30 Este 0 -- -- 67
2020-01-06 17:00:00 19.8 16 Este 30 Nordeste 0 -- -- 63
2020-01-06 16:00:00 20.5 19 Este 29 Este 0 -- -- 57
2020-01-06 15:00:00 20.4 15 Nordeste 33 Este 0 -- -- 59
2020-01-06 14:00:00 20.1 17 Nordeste 26 Nordeste 0 -- -- 66
2020-01-06 13:00:00 19.9 16 Nordeste 32 Nordeste 0 -- -- 66
2020-01-06 12:00:00 19.4 25 Nordeste 37 Nordeste 0 -- -- 69
2020-01-06 11:00:00 19.2 15 Nordeste 26 Este 0 -- -- 73
2020-01-06 10:00:00 18.7 13 Nordeste 28 Nordeste 0 -- -- 72
2020-01-06 09:00:00 17.8 10 Este 18 Sudeste 0 -- -- 70